KHEZ/HEZ METAR and TAF weather

Enter ICAO airport designator
Station Type Date Time Source
KHEZ METAR 2019/10/18 10:56 UTC NOAA

KHEZ 181056Z AUTO 06004KT 10SM CLR 12/10 A2992 RMK AO2 SLP132 T01170100


Station Type Date Time Source
KHEZ Decoded METAR 2019/10/18 10:56 UTC NOAA

Natchez, Hardy-Anders Field Natchez-Adams County Airport, MS, United States (KHEZ) 31-37N 091-18W
Oct 18, 2019 - 06:56 AM EDT / 2019.10.18 1056 UTC
Wind: from the ENE (060 degrees) at 5 MPH (4 KT):0
Visibility: 10 mile(s):0
Sky conditions: clear
Temperature: 53.1 F (11.7 C)
Dew Point: 50.0 F (10.0 C)
Relative Humidity: 89%
Pressure (altimeter): 29.92 in. Hg (1013 hPa)
ob: KHEZ 181056Z AUTO 06004KT 10SM CLR 12/10 A2992 RMK AO2 SLP132 T01170100
cycle: 11

Station Type Date Time Source
KHEZ TAF UTC NOAA

Error!

Example: see airport list